Time;durP1;ratioP1;P1;durP2;ratioP2;P2;SDS_P1;SDS_P2;PMS_P1;PMS_P2;Temp;Humidity;BMP_temperature;BMP_pressure;BME280_temperature;BME280_humidity;BME280_pressure;Samples;Min_cycle;Max_cycle;Signal;HPM_P1;HPM_P2
2022/11/05 00:16:42;;;;;;;7.07;5.40;;;15.00;99.90;;;;;;5006746;28;20185;-76
2022/11/05 00:16:56;;;;;;;8.80;5.47;;;15.00;99.90;;;;;;4989775;28;20224;-76
2022/11/05 00:19:22;;;;;;;11.50;5.67;;;15.00;99.90;;;;;;4989284;28;20198;-77
2022/11/05 00:27:20;;;;;;;7.17;5.00;;;14.80;99.90;;;;;;5012040;28;20656;-77
2022/11/05 00:29:48;;;;;;;5.73;5.10;;;14.80;99.90;;;;;;5009019;28;20208;-76
2022/11/05 00:32:14;;;;;;;7.50;5.47;;;14.80;99.90;;;;;;5027388;28;20223;-76
2022/11/05 00:34:40;;;;;;;9.33;5.80;;;14.70;99.90;;;;;;5020300;28;20212;-76
2022/11/05 00:37:06;;;;;;;8.33;5.47;;;14.70;99.90;;;;;;4973934;28;20201;-77
2022/11/05 00:39:32;;;;;;;9.13;5.23;;;14.60;99.90;;;;;;4995227;28;20291;-76
2022/11/05 00:50:19;;;;;;;11.27;5.50;;;14.50;99.90;;;;;;5017582;28;20216;-76
2022/11/05 00:52:54;;;;;;;9.10;4.97;;;14.50;99.90;;;;;;5023017;28;20181;-77
2022/11/05 00:55:47;;;;;;;6.57;4.70;;;14.50;99.90;;;;;;4974986;28;20199;-77
2022/11/05 00:58:20;;;;;;;6.20;4.60;;;14.50;99.90;;;;;;4983807;28;20658;-76
2022/11/05 01:00:56;;;;;;;9.27;5.03;;;14.40;99.90;;;;;;5015606;28;20569;-76
2022/11/05 01:03:35;;;;;;;8.97;4.90;;;14.30;99.90;;;;;;4974417;28;20212;-76
2022/11/05 01:06:09;;;;;;;7.80;4.63;;;14.30;99.90;;;;;;5009662;28;20581;-76
2022/11/05 01:08:38;;;;;;;9.17;5.10;;;14.20;99.90;;;;;;5026377;28;20175;-76
2022/11/05 01:11:31;;;;;;;6.40;4.50;;;14.20;99.90;;;;;;5017969;28;20323;-76
2022/11/05 01:14:04;;;;;;;10.20;5.63;;;14.20;99.90;;;;;;4995107;28;20200;-76
2022/11/05 01:16:31;;;;;;;7.73;4.90;;;14.20;99.90;;;;;;5006734;28;20263;-76
2022/11/05 01:18:57;;;;;;;8.00;5.30;;;14.30;99.90;;;;;;5008481;28;20254;-76
2022/11/05 01:21:23;;;;;;;10.63;5.13;;;14.30;99.90;;;;;;5026769;28;20923;-76
2022/11/05 01:23:50;;;;;;;5.23;4.73;;;14.30;99.90;;;;;;5009756;28;20218;-77
2022/11/05 01:26:16;;;;;;;7.43;5.07;;;14.30;99.90;;;;;;4988776;28;20220;-76
2022/11/05 01:28:43;;;;;;;9.13;5.00;;;14.30;99.90;;;;;;4987204;28;20235;-76
2022/11/05 01:31:09;;;;;;;10.80;6.03;;;14.40;99.90;;;;;;5006749;28;20193;-77
2022/11/05 01:33:36;;;;;;;8.83;5.77;;;14.40;99.90;;;;;;4988990;28;20212;-76
2022/11/05 01:36:05;;;;;;;6.07;4.53;;;14.40;99.90;;;;;;4991793;28;20201;-76
2022/11/05 01:38:32;;;;;;;7.50;5.00;;;14.40;99.90;;;;;;4998486;28;20208;-77
2022/11/05 01:40:59;;;;;;;6.90;4.90;;;14.40;99.90;;;;;;4990012;28;20244;-76
2022/11/05 01:43:25;;;;;;;8.87;4.70;;;14.50;99.90;;;;;;4989371;28;20573;-76
2022/11/05 01:45:57;;;;;;;8.83;5.07;;;14.50;99.90;;;;;;4991239;28;20323;-76
2022/11/05 01:48:35;;;;;;;9.17;5.27;;;14.50;99.90;;;;;;5010346;28;20188;-76
2022/11/05 01:51:10;;;;;;;8.20;5.40;;;14.50;99.90;;;;;;4991193;28;20545;-76
2022/11/05 01:53:54;;;;;;;6.03;4.90;;;14.50;99.90;;;;;;5029708;28;20180;-77
2022/11/05 01:56:36;;;;;;;7.60;4.97;;;14.50;99.90;;;;;;5031066;28;20195;-77
2022/11/05 01:59:12;;;;;;;7.33;4.57;;;14.50;99.90;;;;;;5013527;28;20853;-76
2022/11/05 02:01:39;;;;;;;10.27;5.07;;;14.50;99.90;;;;;;5031051;28;20187;-77
2022/11/05 02:04:13;;;;;;;7.47;4.57;;;14.50;99.90;;;;;;5004082;28;20666;-77
2022/11/05 02:06:44;;;;;;;8.13;4.67;;;14.60;99.90;;;;;;5011635;28;20204;-77
2022/11/05 02:09:32;;;;;;;11.10;4.97;;;14.60;99.90;;;;;;4993574;28;20216;-76
2022/11/05 02:11:58;;;;;;;8.63;4.63;;;14.60;99.90;;;;;;4991612;28;20291;-76
2022/11/05 02:14:24;;;;;;;6.03;4.90;;;14.60;99.90;;;;;;5011318;28;20204;-76
2022/11/05 02:17:23;;;;;;;9.63;5.03;;;14.60;99.90;;;;;;4993776;28;20199;-76
2022/11/05 02:20:21;;;;;;;9.80;4.80;;;14.60;99.90;;;;;;5010325;28;20189;-77
2022/11/05 02:23:20;;;;;;;6.07;5.20;;;14.60;99.90;;;;;;5010857;28;20196;-76
2022/11/05 02:26:11;;;;;;;6.17;4.57;;;14.60;99.90;;;;;;5009951;28;20215;-77
2022/11/05 02:29:31;;;;;;;8.83;5.00;;;14.60;99.90;;;;;;4993462;28;20279;-76
2022/11/05 02:32:28;;;;;;;8.77;4.90;;;14.50;99.90;;;;;;4988743;28;20591;-76
2022/11/05 02:35:33;;;;;;;6.30;4.57;;;14.40;99.90;;;;;;4990066;28;20188;-76
2022/11/05 02:38:48;;;;;;;7.43;4.60;;;14.40;99.90;;;;;;4973790;28;20578;-76
2022/11/05 02:41:49;;;;;;;6.03;4.57;;;14.40;99.90;;;;;;5004789;28;20544;-76
2022/11/05 02:44:40;;;;;;;7.13;4.83;;;14.40;99.90;;;;;;4990969;28;20249;-76
2022/11/05 02:47:28;;;;;;;7.37;4.50;;;14.30;99.90;;;;;;5001949;28;20189;-76
2022/11/05 02:51:02;;;;;;;7.50;4.50;;;14.30;99.90;;;;;;5011014;28;20215;-76
2022/11/05 02:53:57;;;;;;;7.20;4.27;;;14.20;99.90;;;;;;4968762;28;20193;-76
2022/11/05 02:56:29;;;;;;;5.77;4.57;;;14.20;99.90;;;;;;4992940;28;20226;-76
2022/11/05 02:58:55;;;;;;;9.97;4.57;;;14.10;99.90;;;;;;5008830;28;20223;-76
2022/11/05 03:01:21;;;;;;;11.93;5.20;;;14.10;99.90;;;;;;5009140;28;20209;-76
2022/11/05 03:04:01;;;;;;;6.70;5.30;;;14.10;99.90;;;;;;5003210;28;20854;-76
2022/11/05 03:06:55;;;;;;;7.70;4.93;;;14.20;99.90;;;;;;5009235;28;20259;-76
2022/11/05 03:10:08;;;;;;;7.80;4.50;;;14.20;99.90;;;;;;4991181;28;20189;-76
2022/11/05 03:12:50;;;;;;;6.00;4.73;;;14.20;99.90;;;;;;5010143;28;20813;-76
2022/11/05 03:15:26;;;;;;;8.00;5.10;;;14.20;99.90;;;;;;5010133;28;20264;-76
2022/11/05 03:18:01;;;;;;;7.37;4.87;;;14.20;99.90;;;;;;5009119;28;20265;-76
2022/11/05 03:20:50;;;;;;;7.97;4.87;;;14.10;99.90;;;;;;4975476;28;20262;-76
2022/11/05 03:23:43;;;;;;;7.93;4.57;;;14.10;99.90;;;;;;5019843;28;20205;-76
2022/11/05 03:26:39;;;;;;;8.40;4.77;;;14.10;99.90;;;;;;5011958;28;20680;-76
2022/11/05 03:29:18;;;;;;;7.77;4.97;;;14.10;99.90;;;;;;5021121;28;20196;-76
2022/11/05 03:31:47;;;;;;;10.50;4.93;;;14.00;99.90;;;;;;5007481;28;20518;-76
2022/11/05 03:34:20;;;;;;;6.47;4.83;;;14.00;99.90;;;;;;5009539;28;20189;-76
2022/11/05 03:36:54;;;;;;;10.43;5.13;;;14.00;99.90;;;;;;5023811;28;20650;-76
2022/11/05 03:39:44;;;;;;;5.53;4.80;;;14.10;99.90;;;;;;5029136;28;20305;-76
2022/11/05 03:42:15;;;;;;;7.77;4.90;;;14.20;99.90;;;;;;5004362;28;20208;-76
2022/11/05 03:44:51;;;;;;;8.90;5.30;;;14.30;99.90;;;;;;4994995;28;20716;-76
2022/11/05 03:47:25;;;;;;;8.53;5.60;;;14.30;99.90;;;;;;5022026;28;20251;-76
2022/11/05 03:50:11;;;;;;;10.07;5.40;;;14.30;99.90;;;;;;5014748;28;20176;-76
2022/11/05 03:52:53;;;;;;;7.17;5.17;;;14.30;99.90;;;;;;5011483;28;20333;-76
2022/11/05 03:55:34;;;;;;;9.37;5.50;;;14.40;99.90;;;;;;5028227;28;20196;-75
2022/11/05 03:58:03;;;;;;;10.27;5.43;;;14.40;99.90;;;;;;5012294;28;20223;-77
2022/11/05 04:00:29;;;;;;;9.70;5.67;;;14.50;99.90;;;;;;5001198;28;20717;-77
2022/11/05 04:02:57;;;;;;;10.77;5.70;;;14.60;99.90;;;;;;5008095;28;20241;-76
2022/11/05 04:05:23;;;;;;;8.63;6.00;;;14.60;99.90;;;;;;5005446;28;20216;-76
2022/11/05 04:13:24;;;;;;;12.83;7.43;;;14.60;99.90;;;;;;5028114;28;20191;-77
2022/11/05 04:18:41;;;;;;;14.27;6.37;;;14.60;99.90;;;;;;4998724;28;20646;-76
2022/11/05 04:24:07;;;;;;;9.53;6.00;;;14.60;99.90;;;;;;5009188;28;20205;-76
2022/11/05 04:26:44;;;;;;;7.27;5.80;;;14.60;99.90;;;;;;5028981;28;20306;-76
2022/11/05 04:31:56;;;;;;;11.30;6.00;;;14.60;99.90;;;;;;5007663;28;20311;-76
2022/11/05 04:34:23;;;;;;;7.33;5.80;;;14.60;99.90;;;;;;5023099;28;20200;-76
2022/11/05 04:36:51;;;;;;;13.80;6.10;;;14.60;99.90;;;;;;4991142;28;20181;-76
2022/11/05 04:39:19;;;;;;;8.70;5.37;;;14.60;99.90;;;;;;5022698;28;20192;-76
2022/11/05 04:41:47;;;;;;;9.13;6.13;;;14.60;99.90;;;;;;5026189;28;20180;-76
2022/11/05 04:44:15;;;;;;;8.57;5.80;;;14.60;99.90;;;;;;5008899;28;20219;-76
2022/11/05 04:46:42;;;;;;;7.47;5.80;;;14.60;99.90;;;;;;5020102;28;20224;-76
2022/11/05 04:49:08;;;;;;;9.33;6.10;;;14.60;99.90;;;;;;5018155;28;20598;-76
2022/11/05 04:51:35;;;;;;;7.40;5.73;;;14.60;99.90;;;;;;5010368;28;20712;-76
2022/11/05 04:54:01;;;;;;;12.47;6.17;;;14.60;99.90;;;;;;5011878;28;20223;-76
2022/11/05 04:56:28;;;;;;;10.67;5.90;;;14.60;99.90;;;;;;5008856;28;20280;-76
2022/11/05 04:58:54;;;;;;;8.20;5.57;;;14.60;99.90;;;;;;5008586;28;20199;-76
2022/11/05 05:01:24;;;;;;;6.70;4.97;;;14.60;99.90;;;;;;5004583;28;20221;-77
2022/11/05 05:03:52;;;;;;;7.13;4.87;;;14.60;99.90;;;;;;4989836;28;20709;-76
2022/11/05 05:06:20;;;;;;;9.20;5.80;;;14.60;99.90;;;;;;4992730;28;20199;-76
2022/11/05 05:08:49;;;;;;;10.17;5.80;;;14.60;99.90;;;;;;4996962;28;20569;-76
2022/11/05 05:11:20;;;;;;;8.27;5.70;;;14.60;99.90;;;;;;5027808;28;20271;-76
2022/11/05 05:13:47;;;;;;;7.17;5.27;;;14.60;99.90;;;;;;5026902;28;20274;-76
2022/11/05 05:16:27;;;;;;;9.03;5.40;;;14.60;99.90;;;;;;5011203;28;20199;-76
2022/11/05 05:18:54;;;;;;;9.17;4.80;;;14.60;99.90;;;;;;5007283;28;20199;-76
2022/11/05 05:21:38;;;;;;;6.83;4.73;;;14.60;99.90;;;;;;4993777;28;20272;-76
2022/11/05 05:24:20;;;;;;;8.17;5.00;;;14.70;99.90;;;;;;4976067;28;20630;-76
2022/11/05 05:26:49;;;;;;;10.27;5.73;;;14.70;99.90;;;;;;5026369;28;20184;-76
2022/11/05 05:29:16;;;;;;;9.23;5.47;;;14.70;99.90;;;;;;5027389;28;20661;-76
2022/11/05 05:31:44;;;;;;;8.07;5.50;;;14.80;99.90;;;;;;5015409;28;20672;-76
2022/11/05 05:34:13;;;;;;;7.80;5.63;;;14.90;99.90;;;;;;5006096;28;20228;-76
2022/11/05 05:36:39;;;;;;;9.33;5.33;;;14.90;99.90;;;;;;4986186;28;20184;-77
2022/11/05 05:39:09;;;;;;;7.70;5.17;;;15.00;99.90;;;;;;5007009;28;20683;-76
2022/11/05 05:41:35;;;;;;;9.57;5.63;;;15.00;99.90;;;;;;5002086;28;20566;-76
2022/11/05 05:44:05;;;;;;;7.50;5.70;;;15.10;99.90;;;;;;5005989;28;20788;-76
2022/11/05 05:46:32;;;;;;;8.97;5.63;;;15.10;99.90;;;;;;5008123;28;20191;-76
2022/11/05 05:48:58;;;;;;;12.33;5.50;;;15.20;99.90;;;;;;5007482;28;20259;-76
2022/11/05 05:51:25;;;;;;;10.40;5.77;;;15.20;99.90;;;;;;5018989;28;20250;-76
2022/11/05 05:53:53;;;;;;;6.13;5.17;;;15.30;99.90;;;;;;5026794;28;20180;-76
2022/11/05 05:56:20;;;;;;;10.17;5.20;;;15.30;99.90;;;;;;5006384;28;20224;-76
2022/11/05 05:58:46;;;;;;;6.40;5.30;;;15.40;99.90;;;;;;5007801;28;20189;-76
2022/11/05 06:01:16;;;;;;;7.03;5.30;;;15.40;99.90;;;;;;4973651;28;20191;-76
2022/11/05 06:03:42;;;;;;;10.53;5.50;;;15.40;99.90;;;;;;5006925;28;20291;-77
2022/11/05 06:06:12;;;;;;;8.00;5.70;;;15.50;99.90;;;;;;5003632;28;20195;-76
2022/11/05 06:08:39;;;;;;;8.00;5.67;;;15.50;99.90;;;;;;4982129;28;20542;-76
2022/11/05 06:11:06;;;;;;;7.80;5.87;;;15.50;99.90;;;;;;4991540;28;20184;-76
2022/11/05 06:13:33;;;;;;;9.33;5.60;;;15.60;99.90;;;;;;5007637;28;20196;-76
2022/11/05 06:16:02;;;;;;;9.40;5.60;;;15.60;99.90;;;;;;5007895;28;20491;-76
2022/11/05 06:18:30;;;;;;;11.63;5.67;;;15.70;99.90;;;;;;5005613;28;20211;-76
2022/11/05 06:21:09;;;;;;;10.03;6.60;;;15.70;99.90;;;;;;5010705;28;20192;-76
2022/11/05 06:23:38;;;;;;;7.77;5.70;;;15.70;99.90;;;;;;5007644;28;20633;-76
2022/11/05 06:26:08;;;;;;;7.40;5.60;;;15.70;99.90;;;;;;5020937;28;20252;-76
2022/11/05 06:28:35;;;;;;;18.83;6.10;;;15.80;99.90;;;;;;5026390;28;20223;-77
2022/11/05 06:31:02;;;;;;;8.27;5.77;;;15.90;99.90;;;;;;5026468;28;20206;-76
2022/11/05 06:33:30;;;;;;;11.50;5.80;;;15.90;99.90;;;;;;5020836;28;20215;-76
2022/11/05 06:36:01;;;;;;;10.23;5.60;;;15.90;99.90;;;;;;4975174;28;20185;-77
2022/11/05 06:38:31;;;;;;;8.47;5.10;;;15.90;99.90;;;;;;5011014;28;20215;-76
2022/11/05 06:40:59;;;;;;;7.73;5.53;;;16.00;99.90;;;;;;5030501;28;20590;-77
2022/11/05 06:43:27;;;;;;;10.83;6.00;;;16.00;99.90;;;;;;5014715;28;20196;-76
2022/11/05 06:45:54;;;;;;;7.63;5.47;;;16.10;99.90;;;;;;5011763;28;20181;-76
2022/11/05 06:48:21;;;;;;;8.33;5.60;;;16.10;99.90;;;;;;5006545;28;20190;-76
2022/11/05 06:50:47;;;;;;;9.77;5.07;;;16.20;99.90;;;;;;4992569;28;20276;-76
2022/11/05 06:53:14;;;;;;;10.47;5.27;;;16.20;99.90;;;;;;5010609;28;20260;-76
2022/11/05 06:55:41;;;;;;;7.30;4.77;;;16.20;99.90;;;;;;5029164;28;20658;-76
2022/11/05 06:58:07;;;;;;;8.60;5.30;;;16.30;99.90;;;;;;5028774;28;20718;-77
2022/11/05 07:00:34;;;;;;;8.10;5.40;;;16.30;99.90;;;;;;5024539;28;20272;-76
2022/11/05 07:03:09;;;;;;;7.20;5.10;;;16.40;99.90;;;;;;4991164;28;20185;-77
2022/11/05 07:05:46;;;;;;;6.03;4.93;;;16.50;99.90;;;;;;5002620;28;20204;-76
2022/11/05 07:08:13;;;;;;;10.90;5.00;;;16.50;99.90;;;;;;4976037;28;20204;-76
2022/11/05 07:10:40;;;;;;;8.40;4.90;;;16.50;99.90;;;;;;5009230;28;20196;-77
2022/11/05 07:13:06;;;;;;;7.40;5.27;;;16.50;99.90;;;;;;4986964;28;20192;-76
2022/11/05 07:15:32;;;;;;;9.77;5.70;;;16.50;99.90;;;;;;4994632;28;20185;-77
2022/11/05 07:18:00;;;;;;;8.83;5.20;;;16.50;99.90;;;;;;5009389;28;20181;-76
2022/11/05 07:20:27;;;;;;;10.00;4.97;;;16.60;99.90;;;;;;5010408;28;20196;-76
2022/11/05 07:23:06;;;;;;;6.83;4.87;;;16.60;99.90;;;;;;5009650;28;20177;-76
2022/11/05 07:25:33;;;;;;;8.97;4.70;;;16.60;99.90;;;;;;5025517;28;20280;-76
2022/11/05 07:28:00;;;;;;;7.60;4.60;;;16.60;99.90;;;;;;4993541;28;20574;-77
2022/11/05 07:30:27;;;;;;;8.63;4.80;;;16.80;99.90;;;;;;4990750;28;20196;-77
2022/11/05 07:32:54;;;;;;;7.47;4.97;;;16.90;99.90;;;;;;4955949;28;20192;-77
2022/11/05 07:35:21;;;;;;;9.07;4.67;;;16.90;99.90;;;;;;4997014;28;20185;-77
2022/11/05 07:37:54;;;;;;;7.80;4.93;;;16.90;99.90;;;;;;4997010;28;20267;-77
2022/11/05 07:40:24;;;;;;;8.93;5.33;;;16.90;99.90;;;;;;5010408;28;20227;-77
2022/11/05 07:42:54;;;;;;;9.83;5.30;;;17.00;99.90;;;;;;4998700;28;20554;-77
2022/11/05 07:45:23;;;;;;;10.53;5.30;;;17.00;99.90;;;;;;5010237;28;20244;-76
2022/11/05 07:47:57;;;;;;;13.70;4.90;;;17.10;99.90;;;;;;4992433;28;20183;-77
2022/11/05 07:50:29;;;;;;;6.27;4.70;;;17.10;99.90;;;;;;4991641;28;20275;-77
2022/11/05 07:53:05;;;;;;;11.30;4.93;;;17.10;99.90;;;;;;5011825;28;20193;-77
2022/11/05 07:55:31;;;;;;;7.77;4.77;;;17.10;99.90;;;;;;4972650;28;20185;-76
2022/11/05 07:57:58;;;;;;;7.67;4.57;;;17.20;99.90;;;;;;5005173;28;20189;-77
2022/11/05 08:00:26;;;;;;;10.43;5.00;;;17.20;99.90;;;;;;4992518;28;20217;-76
2022/11/05 08:03:09;;;;;;;10.83;4.70;;;17.20;99.90;;;;;;5023688;28;20796;-77
2022/11/05 08:05:39;;;;;;;6.33;5.13;;;17.30;99.90;;;;;;5015051;28;20207;-76
2022/11/05 08:08:10;;;;;;;9.73;5.10;;;17.40;99.90;;;;;;4976182;28;20700;-76
2022/11/05 08:10:37;;;;;;;7.17;4.77;;;17.40;99.90;;;;;;5007034;28;20207;-77
2022/11/05 08:13:05;;;;;;;10.33;4.80;;;17.50;99.90;;;;;;5029290;28;20743;-77
2022/11/05 08:15:32;;;;;;;10.27;4.80;;;17.60;99.90;;;;;;4992609;28;20192;-77
2022/11/05 08:18:12;;;;;;;9.60;5.00;;;17.60;99.90;;;;;;5023608;28;20185;-76
2022/11/05 08:20:40;;;;;;;7.73;4.83;;;17.70;99.90;;;;;;5001433;28;20199;-77
2022/11/05 08:23:07;;;;;;;6.37;4.03;;;17.80;99.90;;;;;;5008477;28;20189;-76
2022/11/05 08:25:34;;;;;;;8.00;4.30;;;17.80;99.90;;;;;;4991240;28;20192;-77
2022/11/05 08:28:04;;;;;;;5.90;4.43;;;17.90;99.90;;;;;;4976409;28;20178;-77
2022/11/05 08:30:32;;;;;;;7.70;4.73;;;17.90;99.90;;;;;;4986677;28;20176;-77
2022/11/05 08:33:06;;;;;;;9.70;4.43;;;17.90;99.90;;;;;;4994963;28;20234;-77
2022/11/05 08:35:34;;;;;;;10.33;4.10;;;17.90;99.90;;;;;;5029549;28;20274;-76
2022/11/05 08:38:04;;;;;;;6.03;3.70;;;18.00;99.90;;;;;;5028458;28;20184;-77
2022/11/05 08:40:33;;;;;;;10.80;5.00;;;18.00;99.90;;;;;;4994796;28;20619;-76
2022/11/05 08:43:02;;;;;;;7.03;4.10;;;18.10;99.90;;;;;;5019453;28;20189;-77
2022/11/05 08:45:29;;;;;;;7.00;4.17;;;18.20;99.90;;;;;;5009482;28;20213;-77
2022/11/05 08:48:13;;;;;;;8.30;4.10;;;18.20;99.90;;;;;;4990934;28;20184;-76
2022/11/05 08:50:41;;;;;;;4.77;3.63;;;18.30;99.90;;;;;;5007893;28;20184;-76
2022/11/05 08:53:09;;;;;;;5.53;4.30;;;18.30;99.90;;;;;;5008792;28;20184;-77
2022/11/05 08:55:38;;;;;;;9.50;4.20;;;18.40;99.90;;;;;;5009039;28;20180;-77
2022/11/05 08:58:11;;;;;;;8.07;4.13;;;18.50;99.90;;;;;;4991196;28;20196;-77
2022/11/05 09:00:38;;;;;;;7.70;4.07;;;18.50;99.90;;;;;;5006258;28;20191;-77
2022/11/05 09:03:11;;;;;;;7.60;3.87;;;18.50;99.90;;;;;;5008056;28;20670;-77
2022/11/05 09:05:40;;;;;;;7.17;4.20;;;18.60;99.90;;;;;;5001145;28;20858;-77
2022/11/05 09:08:14;;;;;;;6.27;4.20;;;18.70;99.90;;;;;;4990529;28;20674;-77
2022/11/05 09:10:45;;;;;;;10.70;4.53;;;18.70;99.90;;;;;;5008317;28;20662;-76
2022/11/05 09:13:12;;;;;;;8.57;4.00;;;18.80;99.90;;;;;;4984742;28;20189;-77
2022/11/05 09:15:41;;;;;;;11.43;4.70;;;18.90;99.90;;;;;;4990431;28;20199;-77
2022/11/05 09:18:12;;;;;;;6.37;4.37;;;19.00;99.90;;;;;;5008443;28;20212;-76
2022/11/05 09:20:44;;;;;;;13.10;4.87;;;19.10;99.90;;;;;;5007735;28;20195;-76
2022/11/05 09:23:22;;;;;;;10.03;4.30;;;19.20;99.90;;;;;;5006597;28;20215;-76
2022/11/05 09:25:48;;;;;;;8.27;4.13;;;19.20;99.90;;;;;;5008221;28;20270;-77
2022/11/05 09:28:21;;;;;;;10.17;4.90;;;19.30;99.90;;;;;;4993339;28;20545;-77
2022/11/05 09:30:51;;;;;;;7.27;4.30;;;19.30;99.90;;;;;;5000728;28;20185;-77
2022/11/05 09:33:24;;;;;;;7.63;4.20;;;19.40;99.90;;;;;;4987770;28;20189;-77
2022/11/05 09:35:52;;;;;;;5.10;4.10;;;19.50;99.90;;;;;;5008859;28;20495;-77
2022/11/05 09:38:19;;;;;;;8.70;4.90;;;19.50;99.90;;;;;;5005071;28;20284;-77
2022/11/05 09:41:01;;;;;;;7.00;4.30;;;19.60;99.90;;;;;;5000431;28;20232;-77
2022/11/05 09:43:41;;;;;;;8.47;4.33;;;19.70;99.90;;;;;;5021111;28;20250;-77
2022/11/05 09:46:22;;;;;;;7.23;4.40;;;19.70;99.90;;;;;;4993851;28;20701;-77
2022/11/05 09:49:05;;;;;;;6.80;4.20;;;19.70;99.90;;;;;;5026920;28;20176;-77
2022/11/05 09:51:33;;;;;;;10.50;4.57;;;19.80;99.90;;;;;;5026231;28;20265;-77
2022/11/05 09:54:00;;;;;;;9.90;4.73;;;19.90;99.90;;;;;;5009127;28;20322;-77
2022/11/05 09:56:32;;;;;;;16.00;5.80;;;20.10;99.90;;;;;;5027686;28;20179;-77
2022/11/05 09:59:11;;;;;;;7.57;4.33;;;20.10;99.90;;;;;;5017427;28;20528;-77
2022/11/05 10:01:42;;;;;;;8.87;4.73;;;20.20;99.90;;;;;;5007141;28;20180;-77
2022/11/05 10:04:24;;;;;;;7.47;4.57;;;20.30;99.90;;;;;;4989314;28;20294;-77
2022/11/05 10:07:00;;;;;;;6.03;3.93;;;20.40;99.90;;;;;;4990108;28;20272;-77
2022/11/05 10:09:46;;;;;;;7.63;4.20;;;20.60;99.90;;;;;;5008136;28;20303;-77
2022/11/05 10:12:45;;;;;;;8.47;4.07;;;20.70;99.90;;;;;;5007140;28;20387;-77
2022/11/05 10:15:36;;;;;;;6.90;4.00;;;20.80;99.90;;;;;;5009750;28;20181;-77
2022/11/05 10:18:22;;;;;;;6.03;4.23;;;21.00;99.90;;;;;;4993132;28;20181;-77
2022/11/05 10:20:49;;;;;;;8.48;4.05;;;21.20;99.90;;;;;;5025862;28;20192;-77
2022/11/05 10:23:19;;;;;;;9.93;4.25;;;21.80;99.90;;;;;;5011289;28;20173;-77
2022/11/05 10:26:11;;;;;;;8.57;4.57;;;22.70;99.90;;;;;;5011849;28;20193;-77
2022/11/05 10:28:38;;;;;;;7.73;4.10;;;23.80;99.90;;;;;;5010801;28;20193;-77
2022/11/05 10:31:13;;;;;;;7.68;3.92;;;25.90;99.90;;;;;;5011031;28;20177;-77
2022/11/05 10:33:59;;;;;;;10.70;4.32;;;26.60;99.90;;;;;;5026076;28;20199;-77
2022/11/05 10:36:37;;;;;;;6.60;3.95;;;25.20;99.90;;;;;;4993563;28;20284;-77
2022/11/05 10:39:17;;;;;;;8.10;3.30;;;24.10;99.90;;;;;;5011064;28;20658;-77
2022/11/05 10:42:01;;;;;;;7.07;4.00;;;23.20;99.90;;;;;;5010699;28;20196;-77
2022/11/05 10:45:03;;;;;;;7.78;4.07;;;22.80;99.90;;;;;;5011295;28;20216;-76
2022/11/05 10:47:48;;;;;;;6.97;3.90;;;22.50;99.90;;;;;;4994120;28;20184;-77
2022/11/05 10:50:24;;;;;;;7.50;4.20;;;22.40;99.90;;;;;;5026212;28;20635;-77
2022/11/05 10:53:12;;;;;;;6.93;3.97;;;22.50;99.90;;;;;;5012239;28;20275;-77
2022/11/05 10:55:47;;;;;;;6.63;4.13;;;22.50;99.90;;;;;;5030456;28;20195;-77
2022/11/05 10:58:16;;;;;;;12.48;4.32;;;22.50;99.90;;;;;;5030573;28;20172;-77
2022/11/05 11:01:10;;;;;;;8.23;4.20;;;23.80;99.90;;;;;;5009780;28;20180;-77
2022/11/05 11:04:26;;;;;;;8.95;4.00;;;23.30;99.90;;;;;;5005606;28;20358;-77
2022/11/05 11:06:58;;;;;;;10.77;3.90;;;22.30;99.90;;;;;;5005076;28;20193;-77
2022/11/05 11:09:33;;;;;;;11.18;4.18;;;21.90;99.90;;;;;;5006279;28;20240;-77
2022/11/05 11:12:26;;;;;;;6.75;3.50;;;21.80;99.90;;;;;;4991620;28;20569;-78
2022/11/05 11:15:33;;;;;;;7.45;4.15;;;21.70;99.90;;;;;;4999369;28;20236;-76
2022/11/05 11:18:31;;;;;;;10.38;4.00;;;21.70;99.90;;;;;;5011859;28;20192;-77
2022/11/05 11:21:16;;;;;;;6.83;4.10;;;21.70;99.90;;;;;;4977249;28;20192;-77
2022/11/05 11:24:01;;;;;;;7.10;4.30;;;21.70;99.90;;;;;;4995277;28;20265;-77
2022/11/05 11:26:40;;;;;;;9.40;3.80;;;21.70;99.90;;;;;;5028780;28;20181;-77
2022/11/05 11:29:20;;;;;;;10.55;3.95;;;21.70;99.90;;;;;;5027449;28;20184;-77
2022/11/05 11:31:46;;;;;;;9.48;4.10;;;21.70;99.90;;;;;;5009111;28;20722;-77
2022/11/05 11:34:39;;;;;;;10.73;4.00;;;21.70;99.90;;;;;;4991306;28;20641;-77
2022/11/05 11:37:15;;;;;;;7.50;3.92;;;21.60;99.90;;;;;;5009575;28;20185;-77
2022/11/05 11:39:59;;;;;;;7.20;3.90;;;21.60;99.90;;;;;;5007077;28;20176;-77
2022/11/05 11:42:49;;;;;;;9.80;4.40;;;21.60;99.90;;;;;;4975225;28;20252;-77
2022/11/05 11:45:29;;;;;;;14.27;4.22;;;21.50;99.90;;;;;;4979602;28;20250;-77
2022/11/05 11:48:00;;;;;;;9.93;3.75;;;21.40;99.90;;;;;;4991745;28;20243;-77
2022/11/05 11:50:45;;;;;;;9.20;4.60;;;21.40;99.90;;;;;;4975757;28;20642;-77
2022/11/05 11:53:20;;;;;;;8.80;4.03;;;21.40;99.90;;;;;;4975669;28;20192;-77
2022/11/05 11:56:04;;;;;;;10.20;4.00;;;21.40;99.90;;;;;;4998983;28;20176;-77
2022/11/05 11:58:48;;;;;;;6.68;4.20;;;21.50;99.90;;;;;;5011225;28;20269;-77
2022/11/05 12:02:03;;;;;;;9.02;4.43;;;21.40;99.90;;;;;;5011077;28;20180;-77
2022/11/05 12:05:06;;;;;;;8.77;3.80;;;21.40;99.90;;;;;;4989405;28;20806;-77
2022/11/05 12:07:42;;;;;;;8.90;3.85;;;21.30;99.90;;;;;;4955367;28;20203;-77
2022/11/05 12:10:49;;;;;;;13.00;4.33;;;21.40;99.90;;;;;;5015059;28;20299;-77
2022/11/05 12:13:21;;;;;;;7.10;4.47;;;21.40;99.90;;;;;;5014715;28;20175;-77
2022/11/05 12:16:25;;;;;;;7.77;3.90;;;21.30;99.90;;;;;;5011198;28;20671;-77
2022/11/05 12:19:34;;;;;;;5.33;4.00;;;21.10;99.90;;;;;;5028519;28;20179;-77
2022/11/05 12:22:09;;;;;;;10.73;4.40;;;21.00;99.90;;;;;;4994227;28;20229;-77
2022/11/05 12:24:56;;;;;;;7.23;4.13;;;20.90;99.90;;;;;;5000805;28;20216;-77
2022/11/05 12:27:47;;;;;;;7.73;4.10;;;20.90;99.90;;;;;;4991435;28;20221;-77
2022/11/05 12:30:18;;;;;;;6.30;3.90;;;20.90;99.90;;;;;;5007729;28;20199;-76
2022/11/05 12:32:47;;;;;;;9.43;4.97;;;20.80;99.90;;;;;;5007866;28;20227;-76
2022/11/05 12:35:49;;;;;;;12.13;4.80;;;20.80;99.90;;;;;;5008947;28;20200;-77
2022/11/05 12:38:55;;;;;;;8.57;4.10;;;20.70;99.90;;;;;;4988772;28;20275;-76
2022/11/05 12:41:40;;;;;;;9.00;4.07;;;20.70;99.90;;;;;;4993138;28;20234;-77
2022/11/05 12:45:23;;;;;;;8.70;4.20;;;20.70;99.90;;;;;;5018908;28;20309;-76
2022/11/05 12:48:12;;;;;;;9.03;4.50;;;20.70;99.90;;;;;;4913001;29;20190;-77
2022/11/05 12:50:50;;;;;;;11.27;4.50;;;20.60;99.90;;;;;;4927838;29;20283;-77
2022/11/05 12:53:44;;;;;;;7.20;4.33;;;20.70;99.90;;;;;;4985070;28;20228;-77
2022/11/05 12:56:44;;;;;;;7.67;4.50;;;20.60;99.90;;;;;;4986988;28;20236;-76
2022/11/05 12:59:23;;;;;;;5.80;4.00;;;20.50;99.90;;;;;;4985096;28;20200;-77
2022/11/05 13:02:09;;;;;;;5.90;3.97;;;20.40;99.90;;;;;;4976142;28;20191;-77
2022/11/05 13:04:50;;;;;;;7.47;4.27;;;20.50;99.90;;;;;;4990208;28;20599;-77
2022/11/05 13:07:27;;;;;;;5.47;4.20;;;20.40;99.90;;;;;;4993617;28;20184;-77
2022/11/05 13:10:28;;;;;;;8.73;4.60;;;20.30;99.90;;;;;;4985090;28;20189;-77
2022/11/05 13:13:26;;;;;;;8.20;4.43;;;20.30;99.90;;;;;;4995037;28;20259;-77
2022/11/05 13:16:32;;;;;;;12.53;4.73;;;20.20;99.90;;;;;;4988934;28;20216;-77
2022/11/05 13:19:18;;;;;;;10.43;4.50;;;20.20;99.90;;;;;;5016765;28;20211;-77
2022/11/05 13:21:54;;;;;;;6.97;3.90;;;20.20;99.90;;;;;;5007709;28;20238;-77
2022/11/05 13:24:38;;;;;;;8.87;4.77;;;20.20;99.90;;;;;;5023478;28;20212;-77
2022/11/05 13:27:38;;;;;;;9.67;4.37;;;20.20;99.90;;;;;;5006957;28;20511;-77
2022/11/05 13:30:37;;;;;;;7.00;4.30;;;20.10;99.90;;;;;;5004921;28;20247;-77
2022/11/05 13:33:21;;;;;;;8.37;4.10;;;20.00;99.90;;;;;;5008136;28;20192;-77
2022/11/05 13:39:26;;;;;;;9.60;4.30;;;20.00;99.90;;;;;;5007949;28;20740;-77
2022/11/05 13:42:41;;;;;;;9.83;4.53;;;20.00;99.90;;;;;;5022154;28;20646;-77
2022/11/05 13:45:39;;;;;;;8.97;4.90;;;20.00;99.90;;;;;;4989082;28;20209;-77
2022/11/05 13:48:27;;;;;;;10.30;4.73;;;20.00;99.90;;;;;;4988767;28;20535;-77
2022/11/05 13:51:21;;;;;;;7.40;4.40;;;20.00;99.90;;;;;;4988909;28;20200;-77
2022/11/05 13:54:08;;;;;;;10.27;4.80;;;19.90;99.90;;;;;;5004821;28;20283;-77
2022/11/05 13:57:23;;;;;;;5.80;4.47;;;19.90;99.90;;;;;;5012274;28;20168;-77
2022/11/05 14:00:10;;;;;;;10.67;4.50;;;19.90;99.90;;;;;;5009397;28;20188;-77
2022/11/05 14:02:59;;;;;;;10.50;4.53;;;19.90;99.90;;;;;;5025036;28;20871;-77
2022/11/05 14:05:38;;;;;;;9.27;4.23;;;19.90;99.90;;;;;;5006624;28;20209;-77
2022/11/05 14:08:38;;;;;;;14.77;4.50;;;19.90;99.90;;;;;;5005844;28;20188;-77
2022/11/05 14:11:26;;;;;;;8.27;4.57;;;19.90;99.90;;;;;;5006988;28;20188;-77
2022/11/05 14:14:04;;;;;;;12.00;4.90;;;19.80;99.90;;;;;;4988138;28;20182;-77
2022/11/05 14:16:53;;;;;;;8.00;4.80;;;19.70;99.90;;;;;;4987137;28;20557;-77
2022/11/05 14:19:28;;;;;;;9.60;4.57;;;19.60;99.90;;;;;;4998780;28;20189;-77
2022/11/05 14:21:57;;;;;;;9.53;4.63;;;19.60;99.90;;;;;;5000582;28;20193;-77